Time;durP1;ratioP1;P1;durP2;ratioP2;P2;SDS_P1;SDS_P2;PMS_P1;PMS_P2;Temp;Humidity;BMP_temperature;BMP_pressure;BME280_temperature;BME280_humidity;BME280_pressure;Samples;Min_cycle;Max_cycle;Signal;HPM_P1;HPM_P2
2022/08/23 00:01:12;;;;;;;3.90;1.40;;;;;;;23.44;36.74;100282.28;4986150;28;20043;-85
2022/08/23 00:03:38;;;;;;;2.97;1.50;;;;;;;23.43;36.57;100280.66;4986742;28;20041;-85
2022/08/23 00:06:04;;;;;;;4.05;1.80;;;;;;;23.43;36.82;100280.66;4978209;28;20514;-84
2022/08/23 00:08:29;;;;;;;3.70;1.50;;;;;;;23.45;36.57;100292.00;4975693;28;20050;-85
2022/08/23 00:10:55;;;;;;;2.28;1.30;;;;;;;23.49;36.59;100286.94;4985329;28;20107;-84
2022/08/23 00:13:21;;;;;;;3.05;1.35;;;;;;;23.45;36.80;100292.00;4987743;28;20068;-84
2022/08/23 00:15:46;;;;;;;3.97;1.42;;;;;;;23.37;36.94;100287.00;4972257;28;20046;-82
2022/08/23 00:18:13;;;;;;;2.88;1.40;;;;;;;23.27;37.12;100284.94;4979387;28;20092;-83
2022/08/23 00:20:39;;;;;;;3.85;1.40;;;;;;;23.25;37.21;100283.53;4984806;28;20031;-83
2022/08/23 00:23:04;;;;;;;3.70;1.50;;;;;;;23.15;37.45;100286.88;4980683;28;20398;-83
2022/08/23 00:25:30;;;;;;;2.33;1.48;;;;;;;23.13;37.63;100283.59;4986296;28;20038;-84
2022/08/23 00:27:55;;;;;;;3.47;1.45;;;;;;;23.13;37.61;100278.19;4985038;28;20377;-83
2022/08/23 00:30:20;;;;;;;5.22;1.70;;;;;;;23.13;37.69;100280.09;4982453;28;21118;-84
2022/08/23 00:32:46;;;;;;;2.97;1.35;;;;;;;23.08;37.57;100288.91;4984225;28;20045;-84
2022/08/23 00:35:12;;;;;;;3.17;1.45;;;;;;;23.04;37.74;100285.03;4982310;28;20038;-82
2022/08/23 00:37:38;;;;;;;3.33;1.40;;;;;;;23.03;37.75;100286.09;4984462;28;20034;-84
2022/08/23 00:40:07;;;;;;;3.45;1.42;;;;;;;23.02;38.12;100277.16;4983704;28;20072;-82
2022/08/23 00:48:31;;;;;;;2.88;1.50;;;;;;;22.94;38.10;100274.03;4987631;28;20049;-83
2022/08/23 00:51:04;;;;;;;;;;;;;;;22.85;38.36;100270.88;4994256;28;20039;-84
2022/08/23 00:53:32;;;;;;;3.08;1.58;;;;;;;22.80;38.46;100268.91;4984602;28;19921;-84
2022/08/23 00:56:02;;;;;;;3.60;1.58;;;;;;;22.81;38.54;100270.56;4983394;28;20042;-83
2022/08/23 00:58:28;;;;;;;2.97;1.45;;;;;;;22.76;38.59;100283.91;4982224;28;20046;-84
2022/08/23 01:00:55;;;;;;;3.25;1.33;;;;;;;22.70;38.63;100274.09;4983128;28;20121;-84
2022/08/23 01:03:23;;;;;;;2.50;1.33;;;;;;;22.68;38.58;100278.91;4982649;28;20041;-84
2022/08/23 01:06:25;;;;;;;2.95;1.48;;;;;;;22.63;38.66;100284.19;4984434;28;20118;-84
2022/08/23 01:08:54;;;;;;;2.10;1.30;;;;;;;22.56;38.45;100288.88;4975790;28;20410;-83
2022/08/23 01:11:31;;;;;;;2.17;1.27;;;;;;;22.51;38.92;100280.69;4978252;28;20096;-84
2022/08/23 01:14:26;;;;;;;3.20;1.20;;;;;;;22.47;39.21;100283.03;4970950;28;20404;-83
2022/08/23 01:17:29;;;;;;;2.60;1.40;;;;;;;22.44;38.89;100291.59;4978842;28;20311;-84
2022/08/23 01:20:00;;;;;;;2.10;1.20;;;;;;;22.37;39.01;100289.00;4980486;28;20573;-84
2022/08/23 01:22:40;;;;;;;2.47;1.17;;;;;;;22.27;39.49;100291.47;4980673;28;20135;-83
2022/08/23 01:25:08;;;;;;;4.63;1.65;;;;;;;22.23;39.54;100290.31;4981972;28;20049;-84
2022/08/23 01:27:35;;;;;;;2.70;1.50;;;;;;;22.20;39.58;100301.53;4984632;28;20038;-84
2022/08/23 01:30:00;;;;;;;2.35;1.33;;;;;;;22.15;39.88;100288.75;4984242;28;20499;-84
2022/08/23 01:32:26;;;;;;;2.80;1.50;;;;;;;22.16;39.88;100300.34;4983391;28;20096;-84
2022/08/23 01:34:51;;;;;;;2.45;1.58;;;;;;;22.14;40.07;100299.75;4979981;28;20031;-82
2022/08/23 01:37:18;;;;;;;2.30;1.42;;;;;;;22.10;39.77;100302.09;4982592;28;20049;-83
2022/08/23 01:39:44;;;;;;;3.10;1.58;;;;;;;22.06;40.34;100295.53;4984043;28;20111;-82
2022/08/23 01:42:09;;;;;;;2.40;1.35;;;;;;;22.02;40.48;100294.34;4984007;28;20065;-82
2022/08/23 01:44:35;;;;;;;1.83;1.30;;;;;;;21.98;40.14;100298.59;4984064;28;20099;-82
2022/08/23 01:47:00;;;;;;;1.70;1.05;;;;;;;21.91;40.40;100300.56;4987477;28;20042;-82
2022/08/23 01:49:25;;;;;;;1.98;1.13;;;;;;;21.77;41.12;100291.88;4984920;28;20427;-82
2022/08/23 01:51:51;;;;;;;2.25;1.40;;;;;;;21.63;41.46;100291.25;4981948;28;20562;-82
2022/08/23 01:54:16;;;;;;;3.25;1.40;;;;;;;21.47;42.00;100292.72;4978533;28;20103;-82
2022/08/23 01:56:42;;;;;;;1.55;1.02;;;;;;;21.33;42.91;100292.09;4983619;28;20034;-83
2022/08/23 01:59:09;;;;;;;2.55;1.30;;;;;;;21.24;42.44;100296.16;4983989;28;20853;-82
2022/08/23 02:01:36;;;;;;;2.28;1.30;;;;;;;21.12;42.58;100293.41;4984316;28;20034;-82
2022/08/23 02:04:02;;;;;;;1.73;1.20;;;;;;;21.01;42.49;100299.53;4986735;28;20492;-82
2022/08/23 02:06:29;;;;;;;2.63;1.35;;;;;;;20.93;43.08;100302.56;4982701;28;20188;-81
2022/08/23 02:09:00;;;;;;;2.42;1.23;;;;;;;20.92;42.90;100301.69;4982171;28;20041;-82
2022/08/23 02:11:27;;;;;;;2.65;1.52;;;;;;;20.99;42.77;100307.00;4981376;28;20629;-82
2022/08/23 02:13:55;;;;;;;2.30;1.48;;;;;;;20.97;42.82;100304.56;4985059;28;20046;-82
2022/08/23 02:16:49;;;;;;;2.25;1.33;;;;;;;20.94;43.00;100304.19;4986664;28;20462;-81
2022/08/23 02:19:14;;;;;;;3.65;1.42;;;;;;;20.89;42.88;100306.72;4985512;28;20046;-82
2022/08/23 02:21:41;;;;;;;1.58;1.27;;;;;;;20.84;43.36;100299.34;4981440;28;20473;-82
2022/08/23 02:24:17;;;;;;;2.63;1.42;;;;;;;20.82;43.09;100319.41;4979757;28;20039;-81
2022/08/23 02:26:47;;;;;;;2.05;1.23;;;;;;;20.74;43.52;100326.72;4985563;28;20038;-82
2022/08/23 02:29:13;;;;;;;3.63;1.30;;;;;;;20.73;43.57;100326.94;4988188;28;20079;-82
2022/08/23 02:31:39;;;;;;;2.83;1.10;;;;;;;20.62;43.52;100322.31;4980335;28;20053;-82
2022/08/23 02:34:05;;;;;;;1.60;1.00;;;;;;;20.49;43.68;100324.06;5001496;28;20035;-82
2022/08/23 02:36:32;;;;;;;1.85;1.00;;;;;;;20.35;43.92;100320.72;4986529;28;20044;-83
2022/08/23 02:38:57;;;;;;;2.22;1.25;;;;;;;20.24;44.10;100315.22;4987691;28;20191;-82
2022/08/23 02:41:23;;;;;;;1.42;1.00;;;;;;;20.15;44.29;100320.06;4986636;28;20125;-82
2022/08/23 02:43:52;;;;;;;1.98;1.17;;;;;;;20.03;45.61;100322.63;4986582;28;20125;-83
2022/08/23 02:46:18;;;;;;;2.15;1.27;;;;;;;19.90;46.02;100320.88;4976238;28;20035;-83
2022/08/23 02:48:43;;;;;;;2.67;1.35;;;;;;;19.78;46.23;100321.78;4969986;28;20054;-83
2022/08/23 02:51:09;;;;;;;2.17;1.30;;;;;;;19.65;46.33;100328.84;4986851;28;20042;-84
2022/08/23 02:53:35;;;;;;;2.55;1.40;;;;;;;19.56;46.61;100329.31;4988039;28;20039;-83
2022/08/23 02:56:02;;;;;;;1.92;1.35;;;;;;;19.46;46.75;100333.28;4988315;28;20042;-83
2022/08/23 02:58:27;;;;;;;2.65;1.40;;;;;;;19.35;47.37;100335.84;4989049;28;20035;-83
2022/08/23 03:00:52;;;;;;;2.00;1.10;;;;;;;19.27;46.99;100328.88;4993712;28;20100;-83
2022/08/23 03:03:20;;;;;;;1.30;0.95;;;;;;;19.22;47.00;100334.06;4992768;28;20042;-82
2022/08/23 03:05:46;;;;;;;2.42;1.20;;;;;;;19.17;47.33;100329.31;4993316;28;20053;-83
2022/08/23 03:08:12;;;;;;;1.85;1.00;;;;;;;19.14;47.26;100332.44;4988434;28;20145;-84
2022/08/23 03:10:42;;;;;;;3.38;1.48;;;;;;;19.07;47.79;100328.97;4992955;28;20046;-83
2022/08/23 03:13:07;;;;;;;3.03;1.40;;;;;;;19.01;48.16;100335.16;4990029;28;20030;-82
2022/08/23 03:15:33;;;;;;;1.65;1.10;;;;;;;18.94;48.15;100339.72;4987348;28;20046;-83
2022/08/23 03:17:58;;;;;;;1.88;1.00;;;;;;;18.87;48.02;100334.38;4985311;28;20034;-83
2022/08/23 03:20:23;;;;;;;1.95;1.20;;;;;;;18.83;48.16;100334.00;4987323;28;20039;-83
2022/08/23 03:22:49;;;;;;;1.92;1.20;;;;;;;18.80;48.40;100337.06;4990194;28;20044;-82
2022/08/23 03:25:14;;;;;;;2.53;1.40;;;;;;;18.75;48.70;100339.53;4978980;28;20103;-83
2022/08/23 03:27:39;;;;;;;1.70;1.20;;;;;;;18.71;48.59;100341.00;4984309;28;20056;-82
2022/08/23 03:30:06;;;;;;;2.42;1.23;;;;;;;18.78;48.63;100338.31;4986793;28;20047;-82
2022/08/23 03:32:32;;;;;;;1.75;1.20;;;;;;;18.88;48.18;100344.91;4985855;28;20038;-82
2022/08/23 03:34:57;;;;;;;1.92;1.30;;;;;;;18.95;48.40;100346.72;4987953;28;20113;-82
2022/08/23 03:37:23;;;;;;;2.85;1.30;;;;;;;18.95;48.95;100346.72;4988478;28;20026;-82
2022/08/23 03:39:48;;;;;;;2.50;1.20;;;;;;;18.87;48.99;100345.91;4989037;28;20034;-83
2022/08/23 03:42:14;;;;;;;2.30;1.20;;;;;;;18.79;48.89;100351.50;4982283;28;20102;-82
2022/08/23 03:44:40;;;;;;;2.17;1.30;;;;;;;18.77;48.73;100348.22;4989531;28;20073;-82
2022/08/23 03:47:05;;;;;;;2.03;1.15;;;;;;;18.86;48.63;100343.47;4984260;28;20497;-82
2022/08/23 03:49:31;;;;;;;1.85;1.13;;;;;;;18.84;48.75;100346.34;5001646;28;20041;-83
2022/08/23 03:51:59;;;;;;;2.70;1.30;;;;;;;18.78;48.83;100349.03;4988285;28;20538;-81
2022/08/23 03:54:25;;;;;;;2.47;1.30;;;;;;;18.74;48.82;100353.97;4985225;28;20453;-82
2022/08/23 03:56:54;;;;;;;3.20;1.60;;;;;;;18.79;48.63;100359.53;4994768;28;20038;-82
2022/08/23 03:59:20;;;;;;;2.50;1.40;;;;;;;18.78;48.99;100357.91;4987638;28;20459;-83
2022/08/23 04:01:46;;;;;;;1.45;1.10;;;;;;;18.83;48.60;100358.09;4982999;28;20034;-82
2022/08/23 04:04:11;;;;;;;2.63;1.30;;;;;;;18.93;48.62;100356.84;4988764;28;20041;-83
2022/08/23 04:06:37;;;;;;;2.15;1.50;;;;;;;19.04;48.45;100361.53;4986647;28;20043;-82
2022/08/23 04:09:03;;;;;;;3.10;1.85;;;;;;;19.15;48.63;100366.25;4980945;28;20117;-82
2022/08/23 04:11:28;;;;;;;2.25;1.50;;;;;;;19.25;48.19;100366.59;4987432;28;20051;-81
2022/08/23 04:13:54;;;;;;;4.07;1.40;;;;;;;19.33;48.10;100378.13;4984572;28;20470;-82
2022/08/23 04:16:20;;;;;;;2.45;1.50;;;;;;;19.33;48.25;100370.91;4982790;28;20400;-82
2022/08/23 04:18:46;;;;;;;2.13;1.10;;;;;;;19.25;48.27;100371.16;4987144;28;20045;-81
2022/08/23 04:21:17;;;;;;;3.33;1.50;;;;;;;19.22;48.50;100376.94;4979953;28;20390;-82
2022/08/23 04:23:43;;;;;;;3.35;1.67;;;;;;;19.27;47.98;100374.44;4987555;28;20031;-82
2022/08/23 04:26:09;;;;;;;1.90;1.40;;;;;;;19.22;48.46;100380.44;4983158;28;20060;-82
2022/08/23 04:28:35;;;;;;;1.98;1.27;;;;;;;19.14;48.69;100374.47;4983201;28;20384;-83
2022/08/23 04:31:02;;;;;;;2.20;1.40;;;;;;;19.02;49.10;100380.50;4984287;28;20039;-81
2022/08/23 04:33:31;;;;;;;1.50;1.10;;;;;;;18.92;49.21;100388.16;4986615;28;20133;-81
2022/08/23 04:35:58;;;;;;;2.25;1.20;;;;;;;18.81;49.67;100386.97;4986647;28;20384;-82
2022/08/23 04:38:24;;;;;;;2.00;1.20;;;;;;;18.74;49.37;100396.00;4981121;28;20033;-82
2022/08/23 04:43:33;;;;;;;2.47;1.30;;;;;;;18.60;50.11;100397.88;4985875;28;20049;-82
2022/08/23 04:45:59;;;;;;;1.80;1.30;;;;;;;18.55;50.56;100398.50;4986228;28;20069;-81
2022/08/23 04:48:24;;;;;;;2.45;1.17;;;;;;;18.51;50.52;100399.94;4984304;28;20049;-82
2022/08/23 04:50:49;;;;;;;2.55;1.60;;;;;;;18.51;51.00;100407.16;4985700;28;20049;-82
2022/08/23 04:53:15;;;;;;;2.83;1.55;;;;;;;18.52;51.07;100409.63;4987661;28;20129;-82
2022/08/23 04:55:41;;;;;;;1.80;1.23;;;;;;;18.52;50.55;100404.28;4988276;28;20035;-83
2022/08/23 04:58:06;;;;;;;2.47;1.33;;;;;;;18.54;50.61;100420.13;4985238;28;20053;-81
2022/08/23 05:00:32;;;;;;;1.77;1.20;;;;;;;18.56;50.68;100415.38;4985111;28;20057;-81
2022/08/23 05:02:58;;;;;;;2.28;1.33;;;;;;;18.59;50.92;100423.00;4988748;28;20115;-82
2022/08/23 05:05:26;;;;;;;2.45;1.40;;;;;;;18.62;51.08;100409.22;4988311;28;20476;-81
2022/08/23 05:07:51;;;;;;;2.40;1.40;;;;;;;18.66;50.82;100418.44;4987127;28;20400;-81
2022/08/23 05:10:17;;;;;;;3.17;1.70;;;;;;;18.68;50.75;100424.44;4984302;28;20057;-82
2022/08/23 05:12:42;;;;;;;2.45;1.48;;;;;;;18.73;51.04;100432.66;5069427;28;20582;-81
2022/08/23 05:15:08;;;;;;;3.10;1.65;;;;;;;18.81;50.99;100423.63;4985716;28;20031;-82
2022/08/23 05:17:34;;;;;;;2.65;1.58;;;;;;;18.90;50.97;100430.41;4988220;28;20507;-81
2022/08/23 05:20:00;;;;;;;2.22;1.50;;;;;;;19.02;51.12;100438.63;4986718;28;20031;-81
2022/08/23 05:22:25;;;;;;;2.08;1.38;;;;;;;19.10;50.93;100435.75;4974345;28;20041;-82
2022/08/23 05:24:51;;;;;;;2.70;1.67;;;;;;;19.23;51.35;100446.41;4967971;28;20042;-82
2022/08/23 05:27:16;;;;;;;4.22;1.73;;;;;;;19.34;51.02;100446.81;4978452;28;20034;-82
2022/08/23 05:29:41;;;;;;;3.42;1.85;;;;;;;19.57;50.30;100449.81;4988213;28;20120;-81
2022/08/23 05:32:07;;;;;;;5.28;1.80;;;;;;;19.85;50.23;100452.16;4986842;28;20122;-82
2022/08/23 05:34:32;;;;;;;3.92;2.05;;;;;;;20.14;49.84;100452.63;4988112;28;20046;-81
2022/08/23 05:36:57;;;;;;;4.03;2.03;;;;;;;20.46;49.26;100460.69;4986192;28;20182;-82
2022/08/23 05:39:23;;;;;;;3.92;2.55;;;;;;;20.76;49.51;100476.97;4986677;28;20035;-82
2022/08/23 05:41:48;;;;;;;4.00;2.38;;;;;;;21.00;49.16;100460.03;4988232;28;20038;-82
2022/08/23 05:44:14;;;;;;;5.03;2.67;;;;;;;21.26;48.75;100468.88;4986025;28;20054;-82
2022/08/23 05:46:40;;;;;;;6.80;4.07;;;;;;;21.48;48.83;100469.25;4985095;28;20121;-82
2022/08/23 05:49:06;;;;;;;8.68;4.60;;;;;;;21.69;48.30;100467.13;4985521;28;20040;-82
2022/08/23 05:51:33;;;;;;;6.40;3.60;;;;;;;21.95;47.94;100466.81;4986127;28;20129;-82
2022/08/23 05:54:01;;;;;;;5.38;3.22;;;;;;;22.29;47.51;100469.03;4989028;28;20710;-81
2022/08/23 05:56:35;;;;;;;6.05;3.28;;;;;;;22.59;47.06;100472.47;4988035;28;20110;-82
2022/08/23 05:59:05;;;;;;;7.75;3.60;;;;;;;22.77;46.26;100470.75;4987825;28;20031;-82
2022/08/23 06:01:31;;;;;;;5.93;3.55;;;;;;;22.98;46.39;100478.28;4989609;28;20042;-82
2022/08/23 06:04:02;;;;;;;5.80;2.70;;;;;;;23.28;45.77;100478.13;5074143;28;20508;-83
2022/08/23 06:06:28;;;;;;;5.43;2.60;;;;;;;23.57;44.85;100486.28;4979459;28;20073;-82
2022/08/23 06:08:53;;;;;;;3.85;2.05;;;;;;;23.81;44.81;100484.38;4984978;28;20543;-81
2022/08/23 06:11:22;;;;;;;5.10;1.95;;;;;;;24.12;44.09;100482.22;4982313;28;20528;-83
2022/08/23 06:13:54;;;;;;;3.47;1.77;;;;;;;24.39;44.09;100487.84;4987778;28;20395;-81
2022/08/23 06:16:23;;;;;;;3.40;1.80;;;;;;;24.62;43.79;100480.66;4988303;28;20568;-82
2022/08/23 06:18:48;;;;;;;3.50;1.48;;;;;;;24.91;43.61;100493.03;4988513;28;20046;-83
2022/08/23 06:21:14;;;;;;;2.85;1.58;;;;;;;25.12;43.47;100494.16;4987030;28;20027;-82
2022/08/23 06:23:41;;;;;;;3.60;1.50;;;;;;;25.37;42.52;100498.31;4987233;28;20046;-83
2022/08/23 06:26:15;;;;;;;2.20;1.30;;;;;;;25.70;42.45;100491.13;4986441;28;20038;-82
2022/08/23 06:28:43;;;;;;;3.03;1.40;;;;;;;25.96;41.75;100495.78;4987676;28;20045;-83
2022/08/23 06:31:09;;;;;;;2.60;1.60;;;;;;;26.25;41.31;100503.66;4988231;28;20641;-83
2022/08/23 06:33:36;;;;;;;2.55;1.60;;;;;;;26.54;40.88;100506.13;4990849;28;20035;-83
2022/08/23 06:36:12;;;;;;;3.08;1.70;;;;;;;26.75;41.10;100498.97;4992108;28;20254;-82
2022/08/23 06:38:40;;;;;;;3.70;1.88;;;;;;;26.96;40.34;100505.34;4991577;28;20037;-82
2022/08/23 06:41:09;;;;;;;3.40;1.98;;;;;;;27.33;39.84;100506.13;4991609;28;20042;-82
2022/08/23 06:43:35;;;;;;;3.95;2.15;;;;;;;27.49;38.09;100504.31;4983481;28;20423;-83
2022/08/23 06:46:22;;;;;;;3.63;2.05;;;;;;;27.53;37.68;100513.59;4972833;28;20088;-82
2022/08/23 06:48:48;;;;;;;2.80;1.70;;;;;;;27.64;37.80;100505.47;4982740;28;20054;-82
2022/08/23 06:51:24;;;;;;;3.22;1.85;;;;;;;28.04;36.52;100504.00;4991932;28;20084;-82
2022/08/23 06:53:54;;;;;;;2.50;1.60;;;;;;;28.34;35.43;100503.19;4991667;28;20046;-83
2022/08/23 06:56:21;;;;;;;3.45;1.52;;;;;;;28.72;35.28;100504.63;4991596;28;20065;-83
2022/08/23 06:58:47;;;;;;;2.75;1.50;;;;;;;28.94;34.54;100506.22;4990332;28;20041;-82
2022/08/23 07:01:19;;;;;;;2.40;1.50;;;;;;;29.06;34.22;100503.19;4992440;28;20546;-82
2022/08/23 07:03:44;;;;;;;2.33;1.20;;;;;;;29.14;35.04;100502.66;4992049;28;20043;-83
2022/08/23 07:06:10;;;;;;;2.60;1.40;;;;;;;29.41;34.50;100505.84;4990086;28;20045;-83
2022/08/23 07:08:35;;;;;;;2.05;1.20;;;;;;;29.56;34.86;100517.78;4991676;28;20031;-83
2022/08/23 07:11:01;;;;;;;1.63;1.10;;;;;;;29.72;34.10;100521.28;4990041;28;20187;-83
2022/08/23 07:13:26;;;;;;;2.05;1.33;;;;;;;30.02;33.50;100518.38;4991806;28;20035;-84
2022/08/23 07:15:57;;;;;;;1.77;1.00;;;;;;;30.38;33.19;100517.34;4992214;28;20153;-83
2022/08/23 07:18:23;;;;;;;;;;;;;;;30.71;32.39;100518.44;4992401;28;20033;-84
2022/08/23 07:20:48;;;;;;;2.43;1.40;;;;;;;30.91;30.94;100514.72;4992179;28;19948;-84
2022/08/23 07:23:14;;;;;;;2.23;1.23;;;;;;;31.05;31.04;100517.59;4990319;28;20031;-84
2022/08/23 07:25:39;;;;;;;1.73;1.20;;;;;;;31.17;30.84;100518.00;4991759;28;20277;-84
2022/08/23 07:28:05;;;;;;;2.93;1.33;;;;;;;31.28;29.39;100525.00;4990909;28;20088;-83
2022/08/23 07:30:30;;;;;;;2.53;1.38;;;;;;;31.29;29.81;100517.63;4991546;28;20349;-83
2022/08/23 07:32:55;;;;;;;2.15;1.10;;;;;;;31.49;29.88;100524.81;4990127;28;20635;-83
2022/08/23 07:35:21;;;;;;;3.67;1.70;;;;;;;31.41;28.67;100523.50;4989447;28;20034;-83
2022/08/23 07:37:46;;;;;;;2.75;1.50;;;;;;;31.37;29.13;100521.63;4988964;28;20286;-83
2022/08/23 07:40:12;;;;;;;4.70;1.53;;;;;;;31.41;29.14;100526.25;4977413;28;20084;-83
2022/08/23 07:42:37;;;;;;;3.65;1.20;;;;;;;31.76;29.22;100526.09;4975890;28;20277;-82
2022/08/23 07:45:02;;;;;;;4.07;1.50;;;;;;;32.14;28.73;100535.16;4970742;28;20027;-83
2022/08/23 07:47:28;;;;;;;2.40;1.40;;;;;;;32.28;28.34;100530.56;4975991;28;20382;-81
2022/08/23 07:49:54;;;;;;;4.88;2.05;;;;;;;32.41;28.17;100530.94;4989981;28;20506;-82
2022/08/23 07:52:19;;;;;;;6.22;3.10;;;;;;;32.46;27.71;100530.84;4987777;28;20118;-81
2022/08/23 07:54:45;;;;;;;6.80;3.78;;;;;;;32.53;27.41;100534.84;4991340;28;20026;-83
2022/08/23 07:57:11;;;;;;;6.90;3.88;;;;;;;32.83;26.99;100534.66;4982380;28;20380;-85
2022/08/23 07:59:36;;;;;;;5.55;2.85;;;;;;;32.93;26.55;100527.03;4986429;28;20026;-83
2022/08/23 08:02:01;;;;;;;4.80;2.80;;;;;;;33.17;26.63;100532.38;4986865;28;20034;-85
2022/08/23 08:04:26;;;;;;;3.60;2.25;;;;;;;33.31;25.93;100540.59;4986543;28;20095;-85
2022/08/23 08:06:52;;;;;;;3.53;2.00;;;;;;;33.41;26.20;100540.41;4975482;28;20070;-85
2022/08/23 08:09:19;;;;;;;3.75;1.80;;;;;;;33.55;25.40;100537.66;4989799;28;20118;-85
2022/08/23 08:11:46;;;;;;;8.63;3.47;;;;;;;33.78;25.46;100540.53;4984659;28;20042;-86
2022/08/23 08:14:12;;;;;;;8.38;3.58;;;;;;;33.89;24.92;100544.63;4978928;28;20034;-84
2022/08/23 08:16:41;;;;;;;4.60;2.45;;;;;;;33.84;25.63;100542.00;4971454;28;20487;-85
2022/08/23 08:19:10;;;;;;;3.22;1.80;;;;;;;34.03;25.42;100556.41;4985422;28;20051;-84
2022/08/23 08:21:37;;;;;;;4.25;1.75;;;;;;;34.24;25.17;100556.78;4990460;28;20044;-85
2022/08/23 08:24:03;;;;;;;4.47;1.88;;;;;;;34.30;24.68;100549.25;4990043;28;20033;-83
2022/08/23 08:26:29;;;;;;;4.28;1.60;;;;;;;34.54;24.64;100550.84;4989255;28;20042;-84
2022/08/23 08:28:55;;;;;;;3.20;1.50;;;;;;;34.98;24.48;100557.47;4990258;28;20037;-81
2022/08/23 08:31:23;;;;;;;3.25;1.60;;;;;;;35.48;24.00;100554.47;4989349;28;20088;-81
2022/08/23 08:33:48;;;;;;;6.88;1.67;;;;;;;36.04;23.05;100550.06;4992039;28;20583;-81
2022/08/23 08:36:30;;;;;;;3.40;1.63;;;;;;;36.38;22.96;100556.72;4990739;28;20038;-82
2022/08/23 08:38:55;;;;;;;2.78;1.60;;;;;;;36.43;22.70;100553.81;4986117;28;20038;-81
2022/08/23 08:41:57;;;;;;;3.25;1.40;;;;;;;36.72;22.76;100564.16;4988691;28;20038;-81
2022/08/23 08:44:40;;;;;;;5.07;1.58;;;;;;;36.74;22.60;100550.88;4982021;28;20034;-80
2022/08/23 08:47:33;;;;;;;5.35;1.50;;;;;;;36.65;22.41;100563.03;4987966;28;20038;-81
2022/08/23 08:50:05;;;;;;;5.10;1.83;;;;;;;36.85;21.96;100562.38;4986816;28;20072;-81
2022/08/23 08:52:46;;;;;;;2.95;1.95;;;;;;;37.17;21.85;100560.16;4985597;28;20038;-81
2022/08/23 08:55:21;;;;;;;3.50;1.67;;;;;;;37.60;21.38;100564.69;4987621;28;20023;-80
2022/08/23 08:57:50;;;;;;;5.53;1.73;;;;;;;37.92;21.27;100559.59;4987281;28;20519;-81
2022/08/23 09:00:20;;;;;;;3.27;1.67;;;;;;;38.37;20.90;100556.97;4987142;28;20478;-81
2022/08/23 09:02:46;;;;;;;4.33;1.63;;;;;;;38.43;20.22;100554.84;4988785;28;20285;-81
2022/08/23 09:05:21;;;;;;;3.55;2.05;;;;;;;39.00;20.04;100567.13;4988682;28;20433;-82
2022/08/23 09:07:59;;;;;;;2.97;1.48;;;;;;;39.32;19.56;100553.56;4989215;28;20046;-81
2022/08/23 09:10:43;;;;;;;3.55;1.60;;;;;;;39.80;18.95;100561.03;4968567;28;20035;-82
2022/08/23 09:13:42;;;;;;;4.57;1.73;;;;;;;39.84;19.14;100558.41;4987206;28;20074;-82
2022/08/23 09:16:25;;;;;;;2.50;1.45;;;;;;;39.75;18.98;100557.69;4987446;28;20076;-82
2022/08/23 09:18:50;;;;;;;2.45;1.52;;;;;;;40.03;18.72;100552.22;4973222;28;20073;-82
2022/08/23 09:21:16;;;;;;;3.00;1.48;;;;;;;40.50;18.70;100551.59;4989476;28;20307;-81
2022/08/23 09:23:45;;;;;;;3.72;1.80;;;;;;;40.67;18.15;100551.28;4990604;28;20051;-82
2022/08/23 09:26:24;;;;;;;2.90;1.15;;;;;;;40.49;17.60;100552.75;4992421;28;20391;-82
2022/08/23 09:28:59;;;;;;;2.90;1.33;;;;;;;40.82;17.29;100546.94;4989479;28;20326;-82
2022/08/23 09:31:46;;;;;;;2.17;1.35;;;;;;;41.23;17.45;100555.09;4990703;28;20034;-83
2022/08/23 09:34:20;;;;;;;2.53;1.30;;;;;;;41.57;17.06;100547.97;4990284;28;20038;-82
2022/08/23 09:36:47;;;;;;;2.45;1.30;;;;;;;42.13;16.96;100550.41;4990659;28;20105;-83
2022/08/23 09:39:30;;;;;;;2.75;1.50;;;;;;;42.19;16.66;100550.91;4988021;28;20035;-83
2022/08/23 09:41:56;;;;;;;3.13;1.50;;;;;;;42.09;16.88;100545.97;4969434;28;20156;-83
2022/08/23 09:44:38;;;;;;;3.88;1.50;;;;;;;42.48;15.92;100548.72;4985845;28;20064;-83
2022/08/23 09:47:15;;;;;;;2.08;1.15;;;;;;;42.94;16.25;100554.34;4990000;28;20113;-82
2022/08/23 09:49:43;;;;;;;2.53;1.38;;;;;;;43.62;15.74;100549.88;4989505;28;20088;-83
2022/08/23 09:52:20;;;;;;;1.67;1.30;;;;;;;44.17;14.79;100546.59;4989190;28;20042;-83
2022/08/23 09:54:54;;;;;;;2.45;1.40;;;;;;;44.53;14.51;100547.84;4987477;28;20036;-82
2022/08/23 09:57:29;;;;;;;4.85;1.33;;;;;;;44.38;14.77;100549.63;4987868;28;20034;-82
2022/08/23 10:00:00;;;;;;;4.25;1.50;;;;;;;44.37;14.38;100552.81;4986796;28;20053;-83
2022/08/23 10:02:30;;;;;;;3.40;1.48;;;;;;;44.47;14.48;100552.16;4989627;28;20813;-83
2022/08/23 10:04:55;;;;;;;4.43;1.58;;;;;;;44.66;14.05;100546.34;4989236;28;20038;-83
2022/08/23 10:07:35;;;;;;;2.53;1.50;;;;;;;44.82;13.93;100545.34;4989240;28;20039;-83
2022/08/23 10:10:22;;;;;;;3.13;1.60;;;;;;;45.04;13.49;100529.56;4992624;28;20038;-83
2022/08/23 10:12:48;;;;;;;3.15;1.80;;;;;;;44.80;13.62;100528.19;4992530;28;20030;-83
2022/08/23 10:15:14;;;;;;;5.10;1.83;;;;;;;45.15;13.74;100527.66;4993566;28;20042;-83
2022/08/23 10:18:09;;;;;;;2.28;1.40;;;;;;;45.64;13.48;100537.56;4992762;28;20088;-83
2022/08/23 10:20:44;;;;;;;3.75;1.80;;;;;;;45.64;13.15;100523.59;4980703;28;20035;-83
2022/08/23 10:23:27;;;;;;;2.70;1.50;;;;;;;45.86;12.57;100518.09;4972245;28;20038;-83
2022/08/23 10:25:59;;;;;;;2.78;1.48;;;;;;;45.66;13.31;100515.63;4971948;28;20038;-83
2022/08/23 10:31:35;;;;;;;5.10;1.70;;;;;;;45.76;13.03;100525.25;4973014;28;20100;-83
2022/08/23 10:34:19;;;;;;;2.75;1.40;;;;;;;44.81;13.86;100513.03;4972025;28;20038;-83
2022/08/23 10:36:51;;;;;;;3.08;1.40;;;;;;;45.84;13.02;100512.09;4973335;28;20031;-83
2022/08/23 10:39:27;;;;;;;2.00;1.30;;;;;;;46.10;12.82;100511.03;4973525;28;20050;-83
2022/08/23 10:42:04;;;;;;;4.18;1.88;;;;;;;46.62;12.49;100508.72;4954632;28;20035;-83
2022/08/23 10:44:40;;;;;;;3.08;1.65;;;;;;;47.42;11.98;100510.28;4985634;28;20177;-83
2022/08/23 10:47:36;;;;;;;3.35;1.42;;;;;;;47.66;11.20;100517.03;4990232;28;20030;-83
2022/08/23 10:50:15;;;;;;;2.95;1.40;;;;;;;47.65;11.81;100518.22;4994736;28;20046;-83
2022/08/23 10:52:55;;;;;;;2.10;1.30;;;;;;;47.43;11.13;100506.28;4985779;28;20395;-83
2022/08/23 10:55:37;;;;;;;2.80;1.40;;;;;;;47.43;11.80;100507.06;4971811;28;20026;-84
2022/08/23 10:58:06;;;;;;;2.88;1.45;;;;;;;47.61;11.20;100509.06;4985455;28;20543;-85
2022/08/23 11:00:34;;;;;;;4.07;1.40;;;;;;;47.86;10.89;100498.53;4983198;28;20046;-83
2022/08/23 11:03:28;;;;;;;2.33;1.50;;;;;;;47.95;10.80;100498.09;4987177;28;20687;-83
2022/08/23 11:06:21;;;;;;;3.30;1.40;;;;;;;47.74;9.95;100503.78;4990486;28;20038;-83
2022/08/23 11:08:47;;;;;;;3.15;1.75;;;;;;;47.09;11.39;100497.53;4977580;28;20104;-83
2022/08/23 11:11:40;;;;;;;3.00;1.60;;;;;;;47.62;11.21;100496.63;4980096;28;20045;-83
2022/08/23 11:14:11;;;;;;;2.72;1.52;;;;;;;47.73;10.69;100491.78;4989087;28;20039;-84
2022/08/23 11:16:41;;;;;;;2.70;1.30;;;;;;;47.45;10.81;100490.66;4989100;28;20038;-84
2022/08/23 11:19:13;;;;;;;2.60;1.60;;;;;;;47.83;10.67;100484.53;5003963;28;20511;-84
2022/08/23 11:21:43;;;;;;;3.10;1.30;;;;;;;48.26;10.57;100489.94;4988035;28;20270;-84
2022/08/23 11:24:11;;;;;;;2.85;1.45;;;;;;;48.56;10.19;100483.69;4993585;28;20038;-84
2022/08/23 11:26:57;;;;;;;2.40;1.20;;;;;;;48.81;10.20;100477.06;4970371;28;20046;-83
2022/08/23 11:29:22;;;;;;;3.47;1.30;;;;;;;48.96;10.04;100489.78;4968624;28;20526;-84
2022/08/23 11:32:18;;;;;;;4.10;1.50;;;;;;;48.27;10.48;100474.69;4986108;28;20241;-84
2022/08/23 11:34:54;;;;;;;2.50;1.40;;;;;;;48.14;9.98;100476.38;4989772;28;20042;-84
2022/08/23 11:37:19;;;;;;;3.30;1.42;;;;;;;47.91;10.78;100462.88;4986628;28;20297;-84
2022/08/23 11:39:57;;;;;;;2.67;1.67;;;;;;;48.49;10.51;100476.13;4986987;28;20419;-84
2022/08/23 11:42:46;;;;;;;1.80;1.20;;;;;;;48.40;10.47;100484.22;4984988;28;21326;-83
2022/08/23 11:45:26;;;;;;;2.33;1.30;;;;;;;48.75;10.22;100481.53;5006167;28;20109;-84
2022/08/23 11:48:21;;;;;;;3.20;1.65;;;;;;;48.20;10.45;100472.75;4991585;28;20052;-85
2022/08/23 11:50:50;;;;;;;2.83;1.70;;;;;;;48.32;10.23;100473.44;4977287;28;20500;-85